Time;durP1;ratioP1;P1;durP2;ratioP2;P2;SDS_P1;SDS_P2;PMS_P1;PMS_P2;Temp;Humidity;BMP_temperature;BMP_pressure;BME280_temperature;BME280_humidity;BME280_pressure;Samples;Min_cycle;Max_cycle;Signal;HPM_P1;HPM_P2
2024/01/07 00:01:01;;;;;;;31.85;21.00;;;19.10;58.60;;;;;;5025854;28;20026;-49
2024/01/07 00:03:27;;;;;;;30.85;20.00;;;19.10;59.20;;;;;;5024884;28;20185;-52
2024/01/07 00:05:52;;;;;;;30.05;19.92;;;19.10;58.60;;;;;;5023018;28;20528;-50
2024/01/07 00:08:18;;;;;;;30.85;19.77;;;19.10;58.70;;;;;;5025189;28;20049;-48
2024/01/07 00:10:43;;;;;;;30.23;20.75;;;19.10;58.50;;;;;;5024116;28;20112;-52
2024/01/07 00:13:09;;;;;;;27.65;18.90;;;19.10;58.50;;;;;;5021823;28;20034;-48
2024/01/07 00:15:34;;;;;;;30.02;20.50;;;19.10;58.60;;;;;;5024096;28;20036;-49
2024/01/07 00:18:00;;;;;;;30.20;20.48;;;19.10;58.60;;;;;;5022032;28;20538;-52
2024/01/07 00:20:25;;;;;;;28.23;18.90;;;19.00;58.60;;;;;;5013052;28;20063;-48
2024/01/07 00:22:51;;;;;;;30.02;20.35;;;19.10;58.70;;;;;;5029309;28;20030;-49
2024/01/07 00:25:18;;;;;;;27.95;18.70;;;19.10;58.50;;;;;;5024129;28;20022;-49
2024/01/07 00:27:43;;;;;;;26.75;19.25;;;19.10;58.60;;;;;;5022178;28;20045;-48
2024/01/07 00:30:09;;;;;;;26.80;19.10;;;19.10;58.70;;;;;;5024230;28;20418;-48
2024/01/07 00:32:35;;;;;;;28.35;19.60;;;19.10;58.60;;;;;;5022846;28;20033;-51
2024/01/07 00:35:01;;;;;;;30.98;19.67;;;19.10;58.70;;;;;;5023307;28;20501;-50
2024/01/07 00:37:26;;;;;;;27.80;18.67;;;19.00;58.60;;;;;;5022321;28;20567;-55
2024/01/07 00:39:51;;;;;;;25.95;18.38;;;19.00;58.60;;;;;;5024370;28;20040;-51
2024/01/07 00:42:17;;;;;;;24.60;18.13;;;19.10;58.70;;;;;;5018600;28;20442;-48
2024/01/07 00:44:42;;;;;;;26.40;18.73;;;19.00;58.60;;;;;;5018901;28;20031;-52
2024/01/07 00:47:08;;;;;;;28.92;18.92;;;19.00;58.60;;;;;;5020482;28;20021;-53
2024/01/07 00:49:33;;;;;;;26.50;17.90;;;19.00;58.60;;;;;;5020226;28;20434;-50
2024/01/07 00:51:59;;;;;;;25.42;17.52;;;19.10;58.70;;;;;;5023688;28;20041;-49
2024/01/07 00:54:24;;;;;;;26.55;18.40;;;19.10;58.60;;;;;;5021977;28;20029;-53
2024/01/07 00:56:50;;;;;;;26.85;19.02;;;19.10;58.50;;;;;;5038944;28;20022;-47
2024/01/07 00:59:16;;;;;;;26.08;18.00;;;19.00;58.60;;;;;;5023344;28;20022;-48
2024/01/07 01:01:41;;;;;;;25.55;16.75;;;19.00;58.50;;;;;;5022773;28;20441;-51
2024/01/07 01:04:07;;;;;;;24.35;16.45;;;19.00;58.50;;;;;;5024214;28;20040;-53
2024/01/07 01:06:32;;;;;;;25.70;17.52;;;19.00;58.60;;;;;;5022081;28;20025;-48
2024/01/07 01:08:58;;;;;;;24.20;17.17;;;19.00;58.60;;;;;;5021316;28;20036;-48
2024/01/07 01:11:23;;;;;;;26.52;17.17;;;19.00;58.60;;;;;;5022488;28;20724;-53
2024/01/07 01:13:49;;;;;;;26.08;17.20;;;19.00;58.60;;;;;;5022733;28;20040;-54
2024/01/07 01:16:14;;;;;;;25.30;16.65;;;19.10;58.60;;;;;;5022891;28;20113;-51
2024/01/07 01:18:40;;;;;;;24.13;17.27;;;19.00;58.60;;;;;;5022541;28;20050;-50
2024/01/07 01:21:05;;;;;;;25.40;16.65;;;19.10;58.50;;;;;;5024245;28;20022;-48
2024/01/07 01:23:31;;;;;;;24.67;16.83;;;19.00;58.60;;;;;;5023290;28;20034;-48
2024/01/07 01:25:56;;;;;;;22.95;16.17;;;19.00;58.70;;;;;;5021919;28;20033;-48
2024/01/07 01:28:22;;;;;;;21.77;16.10;;;19.10;58.60;;;;;;5024479;28;20041;-52
2024/01/07 01:30:47;;;;;;;24.48;16.83;;;19.00;58.50;;;;;;5025890;28;20461;-49
2024/01/07 01:33:12;;;;;;;22.17;16.02;;;19.10;58.50;;;;;;5025321;28;20578;-48
2024/01/07 01:35:38;;;;;;;21.65;16.05;;;19.00;58.60;;;;;;5025367;28;20037;-49
2024/01/07 01:38:03;;;;;;;25.00;16.20;;;19.10;58.70;;;;;;5022324;28;20032;-50
2024/01/07 01:40:29;;;;;;;23.08;17.15;;;19.00;58.60;;;;;;5025782;28;20505;-47
2024/01/07 01:42:55;;;;;;;23.02;16.40;;;19.00;58.60;;;;;;5026935;28;20030;-48
2024/01/07 01:45:20;;;;;;;23.25;16.60;;;19.00;58.70;;;;;;5026859;28;20438;-51
2024/01/07 01:47:47;;;;;;;21.55;15.57;;;19.10;58.60;;;;;;5024168;28;20037;-55
2024/01/07 01:50:14;;;;;;;22.52;15.55;;;19.00;58.50;;;;;;5024027;28;20072;-49
2024/01/07 01:52:40;;;;;;;20.23;15.15;;;19.10;58.50;;;;;;5024100;28;20029;-53
2024/01/07 01:55:05;;;;;;;20.83;15.50;;;19.00;58.60;;;;;;5026641;28;20048;-47
2024/01/07 01:57:37;;;;;;;19.73;14.65;;;19.00;58.60;;;;;;5026554;28;20117;-52
2024/01/07 02:00:04;;;;;;;21.27;14.65;;;19.00;58.50;;;;;;5023163;28;20037;-48
2024/01/07 02:02:31;;;;;;;20.95;15.23;;;19.00;58.60;;;;;;5025964;28;20033;-50
2024/01/07 02:04:57;;;;;;;20.00;14.40;;;19.00;58.50;;;;;;5023238;28;20045;-54
2024/01/07 02:07:24;;;;;;;21.27;15.43;;;19.10;58.60;;;;;;5023740;28;20437;-50
2024/01/07 02:09:50;;;;;;;17.88;13.60;;;19.00;58.40;;;;;;5024740;28;20116;-53
2024/01/07 02:12:15;;;;;;;19.50;14.05;;;19.00;58.50;;;;;;5020861;28;20165;-50
2024/01/07 02:14:41;;;;;;;18.35;13.63;;;19.00;58.60;;;;;;5021088;28;20037;-48
2024/01/07 02:17:07;;;;;;;20.45;14.88;;;19.00;58.60;;;;;;5026011;28;20214;-48
2024/01/07 02:19:32;;;;;;;18.98;14.35;;;19.00;58.60;;;;;;5019863;28;20036;-50
2024/01/07 02:21:57;;;;;;;17.80;13.55;;;19.00;58.70;;;;;;5019288;28;20029;-51
2024/01/07 02:24:23;;;;;;;21.85;14.23;;;19.00;58.60;;;;;;5026275;28;20021;-49
2024/01/07 02:26:49;;;;;;;20.33;14.45;;;19.00;58.60;;;;;;5025298;28;20021;-48
2024/01/07 02:29:14;;;;;;;17.88;13.60;;;18.90;58.60;;;;;;5039404;28;20025;-52
2024/01/07 02:31:40;;;;;;;17.40;13.57;;;18.90;58.80;;;;;;5026516;28;20032;-51
2024/01/07 02:34:05;;;;;;;17.35;12.98;;;18.80;58.80;;;;;;5022427;28;20048;-48
2024/01/07 02:36:31;;;;;;;19.80;13.15;;;18.80;58.90;;;;;;5017975;28;20026;-48
2024/01/07 02:38:56;;;;;;;19.20;13.68;;;18.80;59.00;;;;;;5022530;28;21051;-52
2024/01/07 02:41:25;;;;;;;19.02;13.85;;;18.70;59.00;;;;;;5025925;28;20035;-48
2024/01/07 02:43:51;;;;;;;17.42;13.38;;;18.70;59.00;;;;;;5023305;28;20029;-51
2024/01/07 02:46:16;;;;;;;18.60;13.00;;;18.70;59.00;;;;;;5025468;28;20032;-53
2024/01/07 02:48:42;;;;;;;18.38;13.15;;;18.70;59.10;;;;;;5022552;28;20049;-48
2024/01/07 02:51:08;;;;;;;17.33;12.93;;;18.60;59.20;;;;;;5024526;28;20403;-51
2024/01/07 02:53:34;;;;;;;16.73;11.65;;;18.60;59.20;;;;;;5024652;28;20473;-48
2024/01/07 02:56:00;;;;;;;17.23;12.43;;;18.60;59.20;;;;;;5023390;28;20121;-51
2024/01/07 02:58:25;;;;;;;17.15;12.25;;;18.60;59.20;;;;;;5023049;28;20068;-51
2024/01/07 03:00:51;;;;;;;17.25;12.73;;;18.60;59.20;;;;;;5020400;28;20029;-49
2024/01/07 03:03:16;;;;;;;17.67;12.50;;;18.60;59.10;;;;;;5037670;28;20427;-48
2024/01/07 03:05:42;;;;;;;15.98;12.05;;;18.60;59.10;;;;;;5014419;28;20124;-50
2024/01/07 03:08:07;;;;;;;16.58;11.95;;;18.60;59.00;;;;;;5015375;28;20040;-52
2024/01/07 03:10:33;;;;;;;15.40;12.15;;;18.70;59.10;;;;;;5020630;28;20029;-50
2024/01/07 03:12:59;;;;;;;17.38;12.38;;;18.60;59.00;;;;;;5018061;28;20585;-49
2024/01/07 03:15:25;;;;;;;16.30;12.85;;;18.70;59.00;;;;;;5021799;28;20034;-48
2024/01/07 03:17:50;;;;;;;14.57;11.27;;;18.70;59.00;;;;;;5034155;28;20090;-48
2024/01/07 03:20:16;;;;;;;15.30;11.85;;;18.60;59.00;;;;;;5024852;28;20398;-49
2024/01/07 03:22:41;;;;;;;18.15;12.25;;;18.70;59.00;;;;;;5021278;28;20033;-53
2024/01/07 03:25:07;;;;;;;18.00;11.82;;;18.60;58.90;;;;;;5020398;28;20473;-50
2024/01/07 03:27:33;;;;;;;16.20;11.93;;;18.60;58.90;;;;;;5024511;28;20030;-48
2024/01/07 03:29:58;;;;;;;15.00;12.75;;;18.60;59.00;;;;;;5016725;28;20037;-48
2024/01/07 03:32:24;;;;;;;14.55;11.50;;;18.70;59.00;;;;;;5022911;28;20522;-50
2024/01/07 03:34:49;;;;;;;14.90;11.32;;;18.60;59.00;;;;;;5027082;28;20029;-53
2024/01/07 03:37:15;;;;;;;13.52;10.55;;;18.70;59.00;;;;;;5023538;28;20060;-48
2024/01/07 03:39:41;;;;;;;16.63;11.65;;;18.60;59.00;;;;;;5015323;28;20026;-48
2024/01/07 03:42:11;;;;;;;15.38;10.50;;;18.60;59.00;;;;;;5019599;28;20097;-51
2024/01/07 03:44:38;;;;;;;13.98;10.90;;;18.70;59.00;;;;;;5023787;28;20052;-51
2024/01/07 03:47:03;;;;;;;13.95;10.75;;;18.60;59.00;;;;;;5022163;28;20549;-48
2024/01/07 03:49:29;;;;;;;14.27;10.40;;;18.60;59.00;;;;;;5022978;28;20037;-48
2024/01/07 03:51:54;;;;;;;13.63;10.55;;;18.60;59.00;;;;;;5022594;28;20490;-49
2024/01/07 03:54:20;;;;;;;15.98;11.27;;;18.60;59.30;;;;;;5017876;28;20156;-50
2024/01/07 03:56:46;;;;;;;13.25;10.80;;;18.60;59.00;;;;;;5023102;28;20116;-47
2024/01/07 03:59:11;;;;;;;13.82;10.30;;;18.60;59.00;;;;;;5021267;28;20026;-48
2024/01/07 04:01:37;;;;;;;11.93;9.52;;;18.60;59.00;;;;;;5019187;28;20022;-51
2024/01/07 04:04:02;;;;;;;13.50;10.95;;;18.60;58.90;;;;;;5019343;28;20052;-51
2024/01/07 04:06:28;;;;;;;15.57;11.00;;;18.60;59.00;;;;;;5020015;28;20398;-52
2024/01/07 04:08:54;;;;;;;14.10;10.80;;;18.60;59.00;;;;;;5019072;28;20032;-51
2024/01/07 04:11:19;;;;;;;13.27;10.93;;;18.60;58.90;;;;;;5024175;28;20034;-48
2024/01/07 04:13:45;;;;;;;13.70;9.95;;;18.60;59.00;;;;;;5020246;28;20029;-50
2024/01/07 04:16:20;;;;;;;13.02;10.38;;;18.60;59.00;;;;;;5022003;28;20488;-47
2024/01/07 04:18:47;;;;;;;13.48;10.02;;;18.60;58.90;;;;;;5021562;28;20033;-49
2024/01/07 04:21:13;;;;;;;12.18;9.45;;;18.60;58.90;;;;;;5024006;28;20456;-48
2024/01/07 04:23:43;;;;;;;13.27;10.15;;;18.60;58.90;;;;;;5023527;28;20100;-47
2024/01/07 04:26:09;;;;;;;12.95;10.30;;;18.60;59.00;;;;;;5024738;28;20029;-51
2024/01/07 04:28:34;;;;;;;13.55;9.65;;;18.60;58.90;;;;;;5018452;28;20102;-47
2024/01/07 04:31:00;;;;;;;12.18;9.23;;;18.60;59.00;;;;;;5025697;28;20044;-51
2024/01/07 04:33:25;;;;;;;12.65;9.20;;;18.60;59.00;;;;;;5023825;28;20029;-50
2024/01/07 04:35:51;;;;;;;13.43;10.30;;;18.60;59.00;;;;;;5021393;28;20719;-48
2024/01/07 04:38:16;;;;;;;13.10;10.27;;;18.60;58.90;;;;;;5021921;28;20029;-47
2024/01/07 04:40:42;;;;;;;12.10;9.23;;;18.60;58.90;;;;;;5023780;28;20126;-55
2024/01/07 04:43:07;;;;;;;13.52;9.05;;;18.60;58.90;;;;;;5037577;28;20080;-49
2024/01/07 04:45:32;;;;;;;12.15;9.73;;;18.60;58.90;;;;;;5022848;28;20025;-46
2024/01/07 04:47:58;;;;;;;11.52;9.20;;;18.60;59.00;;;;;;5021527;28;20124;-51
2024/01/07 04:50:23;;;;;;;11.30;9.00;;;18.60;58.90;;;;;;5023700;28;20029;-54
2024/01/07 04:52:49;;;;;;;10.45;8.77;;;18.60;58.90;;;;;;5020657;28;20029;-49
2024/01/07 04:55:14;;;;;;;11.57;8.98;;;18.70;58.90;;;;;;5020598;28;20033;-52
2024/01/07 04:57:40;;;;;;;11.38;8.25;;;18.70;58.80;;;;;;5022438;28;20030;-50
2024/01/07 05:00:06;;;;;;;9.90;8.43;;;18.60;58.80;;;;;;5021701;28;20087;-46
2024/01/07 05:02:31;;;;;;;11.93;9.35;;;18.70;58.90;;;;;;5025347;28;20498;-46
2024/01/07 05:04:57;;;;;;;10.82;8.35;;;18.70;58.80;;;;;;5029205;28;20033;-50
2024/01/07 05:07:22;;;;;;;11.10;8.55;;;18.70;58.70;;;;;;5026050;28;20100;-53
2024/01/07 05:09:48;;;;;;;11.85;9.23;;;18.70;58.70;;;;;;5024927;28;20041;-53
2024/01/07 05:12:13;;;;;;;10.82;8.98;;;18.70;58.80;;;;;;5026356;28;20044;-46
2024/01/07 05:14:40;;;;;;;9.45;7.90;;;18.70;58.80;;;;;;5026694;28;20044;-51
2024/01/07 05:17:06;;;;;;;10.52;8.18;;;18.70;58.70;;;;;;5024875;28;20029;-47
2024/01/07 05:19:31;;;;;;;10.85;8.77;;;18.70;58.60;;;;;;5022555;28;20038;-46
2024/01/07 05:21:58;;;;;;;10.32;7.78;;;18.70;58.70;;;;;;5027799;28;20499;-53
2024/01/07 05:24:25;;;;;;;13.13;9.30;;;18.70;58.70;;;;;;5025064;28;20030;-50
2024/01/07 05:26:50;;;;;;;11.02;8.63;;;18.70;58.70;;;;;;5026949;28;20087;-51
2024/01/07 05:29:16;;;;;;;10.20;7.25;;;18.70;58.60;;;;;;5019523;28;20490;-50
2024/01/07 05:31:41;;;;;;;9.90;8.00;;;18.70;58.60;;;;;;5026618;28;20481;-54
2024/01/07 05:34:07;;;;;;;10.02;8.38;;;18.70;59.00;;;;;;5024249;28;20065;-48
2024/01/07 05:36:32;;;;;;;9.90;7.82;;;18.80;58.60;;;;;;5024000;28;20487;-52
2024/01/07 05:38:58;;;;;;;9.23;7.40;;;18.80;58.60;;;;;;5023273;28;20418;-46
2024/01/07 05:41:23;;;;;;;10.27;8.30;;;18.80;58.50;;;;;;5024550;28;20037;-54
2024/01/07 05:43:49;;;;;;;9.70;7.50;;;18.80;58.40;;;;;;5020253;28;20156;-53
2024/01/07 05:46:14;;;;;;;9.32;8.23;;;18.80;58.40;;;;;;5022380;28;20034;-54
2024/01/07 05:48:44;;;;;;;9.88;7.82;;;18.80;58.40;;;;;;5014580;28;20655;-50
2024/01/07 05:51:10;;;;;;;9.38;7.35;;;18.80;58.40;;;;;;5038309;28;20037;-49
2024/01/07 05:53:35;;;;;;;10.73;7.90;;;18.80;58.30;;;;;;5038278;23;20044;-49
2024/01/07 05:56:01;;;;;;;8.23;6.70;;;18.80;58.30;;;;;;5058106;28;20565;-49
2024/01/07 05:58:26;;;;;;;8.13;7.28;;;18.80;58.30;;;;;;5043401;28;20029;-49
2024/01/07 06:00:52;;;;;;;10.13;7.82;;;18.80;58.30;;;;;;5043172;28;20120;-49
2024/01/07 06:03:17;;;;;;;8.38;7.13;;;18.80;58.30;;;;;;5043880;28;20029;-49
2024/01/07 06:05:42;;;;;;;9.07;7.22;;;18.90;58.30;;;;;;5045346;28;20409;-48
2024/01/07 06:08:08;;;;;;;9.85;7.70;;;18.80;58.30;;;;;;5043751;28;20040;-49
2024/01/07 06:10:34;;;;;;;9.25;7.28;;;18.80;58.20;;;;;;5043990;28;20106;-50
2024/01/07 06:12:59;;;;;;;11.05;7.68;;;18.90;58.30;;;;;;5044460;28;20036;-49
2024/01/07 06:15:25;;;;;;;8.65;6.75;;;18.90;58.20;;;;;;5044641;28;20021;-50
2024/01/07 06:17:50;;;;;;;7.05;6.35;;;18.80;58.10;;;;;;5042259;28;20036;-50
2024/01/07 06:20:16;;;;;;;9.55;7.10;;;18.80;58.10;;;;;;5044798;28;20075;-49
2024/01/07 06:22:42;;;;;;;8.60;6.72;;;18.90;58.20;;;;;;5043833;28;20490;-46
2024/01/07 06:25:07;;;;;;;9.77;7.45;;;18.80;58.20;;;;;;5042382;28;20029;-50
2024/01/07 06:27:33;;;;;;;10.48;7.93;;;18.90;58.30;;;;;;5045238;28;20029;-50
2024/01/07 06:29:58;;;;;;;8.57;6.97;;;18.90;58.20;;;;;;5043146;28;20021;-54
2024/01/07 06:32:25;;;;;;;7.45;6.25;;;18.90;58.20;;;;;;5043520;28;20029;-48
2024/01/07 06:34:50;;;;;;;9.10;7.10;;;18.90;58.20;;;;;;5049494;28;20114;-50
2024/01/07 06:37:16;;;;;;;6.68;5.82;;;18.90;58.20;;;;;;5043156;28;20033;-48
2024/01/07 06:39:41;;;;;;;8.25;7.03;;;18.90;58.30;;;;;;5042558;28;20083;-50
2024/01/07 06:42:07;;;;;;;8.50;7.53;;;18.90;58.20;;;;;;5043807;28;20083;-50
2024/01/07 06:44:32;;;;;;;8.52;6.53;;;18.90;58.20;;;;;;5043053;28;20029;-48
2024/01/07 06:46:58;;;;;;;10.00;7.22;;;18.90;58.10;;;;;;5041443;28;20121;-47
2024/01/07 06:49:23;;;;;;;8.43;6.80;;;18.90;58.20;;;;;;5043266;28;20037;-49
2024/01/07 06:51:49;;;;;;;8.07;6.38;;;18.90;58.20;;;;;;5042286;28;20112;-53
2024/01/07 06:54:14;;;;;;;7.38;6.10;;;18.90;58.20;;;;;;5043509;28;20037;-51
2024/01/07 06:56:40;;;;;;;7.78;6.22;;;18.90;58.10;;;;;;5042499;28;20025;-50
2024/01/07 06:59:07;;;;;;;8.15;6.45;;;18.90;58.20;;;;;;5038326;28;20047;-51
2024/01/07 07:01:32;;;;;;;9.13;6.28;;;18.90;58.10;;;;;;5045226;28;20090;-49
2024/01/07 07:03:58;;;;;;;9.05;6.75;;;18.90;58.10;;;;;;5041318;28;20032;-50
2024/01/07 07:06:24;;;;;;;7.80;6.22;;;18.90;58.10;;;;;;5042312;28;20040;-52
2024/01/07 07:08:49;;;;;;;8.40;6.38;;;18.90;58.10;;;;;;5041837;28;20063;-50
2024/01/07 07:11:16;;;;;;;7.97;6.30;;;18.90;58.10;;;;;;5043046;28;20116;-49
2024/01/07 07:13:41;;;;;;;7.03;5.72;;;18.90;58.10;;;;;;5042164;28;20044;-49
2024/01/07 07:16:07;;;;;;;8.23;6.20;;;18.90;58.10;;;;;;5042566;28;20033;-50
2024/01/07 07:18:33;;;;;;;7.88;6.05;;;18.90;58.10;;;;;;5042685;28;20044;-47
2024/01/07 07:20:59;;;;;;;7.57;6.03;;;18.90;58.10;;;;;;5053962;28;20057;-50
2024/01/07 07:23:24;;;;;;;7.95;6.47;;;18.90;58.10;;;;;;5042752;28;20086;-52
2024/01/07 07:25:50;;;;;;;6.55;5.70;;;18.90;58.10;;;;;;5041774;28;20521;-50
2024/01/07 07:28:17;;;;;;;6.78;5.85;;;18.90;58.10;;;;;;5040536;28;20041;-49
2024/01/07 07:30:43;;;;;;;7.72;5.80;;;19.00;58.10;;;;;;5042740;28;20083;-49
2024/01/07 07:33:08;;;;;;;8.05;5.30;;;18.90;58.00;;;;;;5042413;28;20033;-51
2024/01/07 07:35:34;;;;;;;7.03;5.75;;;18.90;58.10;;;;;;5042743;28;20116;-50
2024/01/07 07:37:59;;;;;;;7.53;5.97;;;18.90;58.10;;;;;;5041766;28;20521;-47
2024/01/07 07:40:24;;;;;;;8.13;6.10;;;18.90;58.10;;;;;;5043317;28;20099;-49
2024/01/07 07:42:51;;;;;;;8.18;6.18;;;18.90;58.10;;;;;;5041725;28;20044;-49
2024/01/07 07:45:16;;;;;;;6.95;5.25;;;19.00;58.10;;;;;;5043877;28;20033;-53
2024/01/07 07:47:44;;;;;;;7.72;6.10;;;19.00;58.10;;;;;;5041708;28;20036;-49
2024/01/07 07:50:10;;;;;;;6.82;5.32;;;19.00;58.10;;;;;;5043234;28;20036;-49
2024/01/07 07:52:36;;;;;;;8.38;6.13;;;18.90;58.10;;;;;;5045740;28;20440;-48
2024/01/07 07:55:02;;;;;;;7.85;5.45;;;18.90;58.00;;;;;;5041433;28;20039;-50
2024/01/07 07:57:28;;;;;;;7.75;6.18;;;19.00;58.10;;;;;;5043191;28;20025;-51
2024/01/07 07:59:54;;;;;;;6.85;5.60;;;19.00;58.10;;;;;;5043396;28;20176;-47
2024/01/07 08:02:20;;;;;;;7.82;5.72;;;18.90;58.10;;;;;;5042547;28;20584;-50
2024/01/07 08:04:46;;;;;;;5.88;5.22;;;18.90;58.10;;;;;;5042582;28;20025;-49
2024/01/07 08:07:12;;;;;;;7.65;5.60;;;19.00;58.10;;;;;;5042243;28;20040;-49
2024/01/07 08:09:38;;;;;;;6.97;5.70;;;19.00;58.10;;;;;;5044645;28;20028;-51
2024/01/07 08:12:04;;;;;;;8.18;5.28;;;19.00;58.10;;;;;;5042890;28;20095;-52
2024/01/07 08:14:31;;;;;;;8.23;5.57;;;18.90;58.10;;;;;;5043043;28;20052;-51
2024/01/07 08:16:56;;;;;;;8.02;5.55;;;18.90;58.10;;;;;;5043320;28;20584;-50
2024/01/07 08:19:22;;;;;;;6.65;5.18;;;18.90;58.10;;;;;;5045353;28;20053;-49
2024/01/07 08:21:47;;;;;;;6.22;4.93;;;19.00;58.10;;;;;;5045884;28;20021;-50
2024/01/07 08:24:13;;;;;;;7.10;5.22;;;18.90;58.10;;;;;;5043960;28;20490;-48
2024/01/07 08:26:38;;;;;;;6.57;5.32;;;18.90;58.20;;;;;;5039835;28;20037;-49
2024/01/07 08:29:04;;;;;;;6.85;5.55;;;18.90;58.30;;;;;;5044239;28;20139;-50
2024/01/07 08:31:31;;;;;;;6.68;5.07;;;18.90;58.10;;;;;;5041453;28;20033;-52
2024/01/07 08:33:56;;;;;;;7.38;5.70;;;18.90;58.40;;;;;;5041024;28;20091;-51
2024/01/07 08:36:22;;;;;;;12.25;5.80;;;18.80;58.40;;;;;;5040553;28;20908;-50
2024/01/07 08:38:48;;;;;;;7.30;5.50;;;18.80;58.40;;;;;;5043782;28;20596;-48
2024/01/07 08:41:15;;;;;;;7.28;5.28;;;18.80;58.50;;;;;;5045083;28;20501;-49
2024/01/07 08:43:41;;;;;;;6.50;5.68;;;18.80;58.50;;;;;;5044944;28;20094;-50
2024/01/07 08:46:07;;;;;;;8.63;5.53;;;18.80;58.40;;;;;;5044889;28;20437;-49
2024/01/07 08:48:32;;;;;;;7.32;5.15;;;18.80;58.40;;;;;;5044768;28;20021;-48
2024/01/07 08:50:58;;;;;;;6.68;5.10;;;18.80;58.30;;;;;;5044025;28;20508;-47
2024/01/07 08:53:23;;;;;;;7.53;5.07;;;18.80;58.40;;;;;;5045209;28;20060;-51
2024/01/07 08:55:49;;;;;;;7.25;6.20;;;18.80;58.50;;;;;;5044748;28;20060;-56
2024/01/07 08:58:16;;;;;;;8.30;5.57;;;18.80;58.50;;;;;;5047067;28;20040;-49
2024/01/07 09:00:42;;;;;;;6.45;5.57;;;18.70;58.50;;;;;;5046673;28;20057;-47
2024/01/07 09:03:08;;;;;;;6.90;5.05;;;18.70;58.50;;;;;;5045573;28;20737;-48
2024/01/07 09:05:33;;;;;;;6.78;5.70;;;18.70;58.40;;;;;;5046153;28;20066;-48
2024/01/07 09:08:00;;;;;;;6.65;5.32;;;18.70;58.50;;;;;;5044423;28;20106;-47
2024/01/07 09:10:26;;;;;;;7.70;5.32;;;18.70;58.40;;;;;;5045455;28;20036;-49
2024/01/07 09:12:53;;;;;;;8.75;6.18;;;18.70;58.40;;;;;;5045160;28;20044;-49
2024/01/07 09:15:20;;;;;;;8.13;5.50;;;18.70;58.40;;;;;;5046039;28;20040;-51
2024/01/07 09:17:46;;;;;;;7.82;5.43;;;18.70;58.50;;;;;;5045821;28;20033;-47
2024/01/07 09:20:11;;;;;;;8.13;6.32;;;18.70;58.60;;;;;;5044797;28;20060;-51
2024/01/07 09:22:37;;;;;;;9.60;6.47;;;18.60;58.60;;;;;;5043429;28;20495;-50
2024/01/07 09:25:03;;;;;;;11.88;8.25;;;18.50;58.70;;;;;;5044164;28;20082;-48
2024/01/07 09:27:29;;;;;;;11.15;8.07;;;18.50;58.70;;;;;;5045409;28;20040;-51
2024/01/07 09:29:55;;;;;;;11.77;8.10;;;18.50;58.90;;;;;;5044797;28;20029;-51
2024/01/07 09:32:20;;;;;;;12.77;8.07;;;18.50;58.90;;;;;;5045052;28;20025;-50
2024/01/07 09:34:46;;;;;;;12.52;8.88;;;18.40;58.90;;;;;;5045656;28;20095;-48
2024/01/07 09:37:11;;;;;;;13.65;9.63;;;18.40;58.90;;;;;;5044776;28;20037;-50
2024/01/07 09:39:41;;;;;;;13.52;9.85;;;18.30;58.90;;;;;;5046027;28;20112;-49
2024/01/07 09:42:17;;;;;;;17.63;10.52;;;18.30;58.90;;;;;;5043796;28;20099;-51
2024/01/07 09:44:43;;;;;;;19.50;11.07;;;18.30;59.00;;;;;;5044544;28;20033;-51
2024/01/07 09:47:11;;;;;;;20.13;12.65;;;18.30;58.90;;;;;;5043580;28;20367;-50
2024/01/07 09:49:37;;;;;;;18.42;12.18;;;18.30;59.00;;;;;;5044314;28;20056;-50
2024/01/07 09:52:04;;;;;;;21.65;11.75;;;18.30;59.10;;;;;;5043645;28;20025;-51
2024/01/07 09:54:30;;;;;;;17.65;12.82;;;18.30;59.10;;;;;;5038427;28;20037;-52
2024/01/07 09:57:01;;;;;;;19.05;12.45;;;18.30;59.00;;;;;;5046181;28;20029;-47
2024/01/07 09:59:29;;;;;;;22.45;13.32;;;18.30;59.10;;;;;;5037826;28;20044;-50
2024/01/07 10:01:55;;;;;;;22.00;12.70;;;18.30;59.10;;;;;;5039422;28;20045;-47
2024/01/07 10:04:21;;;;;;;21.63;13.63;;;18.40;59.00;;;;;;5038818;28;20118;-57
2024/01/07 10:06:48;;;;;;;20.15;12.75;;;18.40;58.90;;;;;;5036580;28;20183;-48
2024/01/07 10:09:15;;;;;;;20.25;12.93;;;18.50;58.70;;;;;;5032452;28;20075;-50
2024/01/07 10:11:40;;;;;;;18.23;12.52;;;18.60;58.40;;;;;;5036011;28;20045;-50
2024/01/07 10:14:06;;;;;;;20.40;12.60;;;18.70;58.00;;;;;;5037282;28;20037;-49
2024/01/07 10:16:33;;;;;;;21.38;12.82;;;18.90;57.80;;;;;;5029732;28;20115;-53
2024/01/07 10:18:58;;;;;;;22.45;13.80;;;19.00;57.40;;;;;;5031748;28;20534;-52
2024/01/07 10:21:24;;;;;;;21.70;13.15;;;19.20;57.20;;;;;;5036482;28;20390;-52
2024/01/07 10:23:50;;;;;;;19.80;13.20;;;19.30;56.90;;;;;;5040233;28;20045;-49
2024/01/07 10:26:16;;;;;;;18.95;12.60;;;19.40;56.70;;;;;;5040386;28;20445;-52
2024/01/07 10:28:43;;;;;;;22.08;12.43;;;19.60;56.40;;;;;;5043171;28;20494;-48
2024/01/07 10:31:09;;;;;;;23.17;12.75;;;19.70;56.10;;;;;;5029642;28;20034;-49
2024/01/07 10:33:34;;;;;;;21.38;12.75;;;19.90;55.90;;;;;;5028626;28;20025;-52
2024/01/07 10:36:05;;;;;;;17.50;12.40;;;19.90;55.60;;;;;;5034196;28;20044;-49
2024/01/07 10:38:33;;;;;;;18.98;12.02;;;20.00;55.40;;;;;;5038790;28;20032;-48
2024/01/07 10:40:59;;;;;;;18.65;12.07;;;20.10;55.20;;;;;;5040576;28;20797;-53
2024/01/07 10:43:28;;;;;;;18.38;11.77;;;20.20;55.00;;;;;;5041575;28;20482;-51
2024/01/07 10:45:55;;;;;;;15.68;11.23;;;20.30;54.90;;;;;;5041722;28;20427;-48
2024/01/07 10:48:23;;;;;;;17.80;11.45;;;20.30;54.80;;;;;;5038658;28;20033;-50
2024/01/07 10:50:53;;;;;;;17.70;12.10;;;20.40;54.90;;;;;;5042487;28;20035;-53
2024/01/07 10:53:21;;;;;;;17.40;11.60;;;20.40;55.00;;;;;;5010141;28;20083;-54
2024/01/07 10:56:03;;;;;;;18.58;12.18;;;20.30;55.70;;;;;;5037618;28;20037;-51
2024/01/07 10:58:32;;;;;;;18.00;11.40;;;20.30;55.20;;;;;;5032898;28;20088;-51
2024/01/07 11:00:59;;;;;;;16.33;10.93;;;20.20;55.40;;;;;;5037576;28;20112;-48
2024/01/07 11:03:38;;;;;;;16.65;11.27;;;20.20;56.10;;;;;;5036063;28;20391;-51
2024/01/07 11:06:16;;;;;;;19.30;12.20;;;20.10;55.70;;;;;;5049058;28;20139;-49
2024/01/07 11:08:51;;;;;;;19.30;12.30;;;20.00;55.90;;;;;;5034634;28;20040;-52
2024/01/07 11:11:25;;;;;;;17.02;11.38;;;19.90;56.20;;;;;;5036466;28;20491;-50
2024/01/07 11:13:50;;;;;;;17.83;12.15;;;19.80;56.30;;;;;;5035500;28;20473;-51
2024/01/07 11:16:46;;;;;;;18.25;12.00;;;19.80;56.50;;;;;;5034617;28;20624;-49
2024/01/07 11:19:14;;;;;;;16.02;11.23;;;19.70;56.60;;;;;;5034237;28;20060;-53
2024/01/07 11:21:39;;;;;;;17.45;11.65;;;19.60;56.80;;;;;;5033806;28;20033;-51
2024/01/07 11:24:05;;;;;;;18.35;11.32;;;19.50;56.90;;;;;;5034844;28;20063;-48
2024/01/07 11:26:31;;;;;;;17.42;12.00;;;19.50;57.00;;;;;;5041208;28;20121;-49
2024/01/07 11:28:57;;;;;;;17.85;11.70;;;19.40;57.20;;;;;;5037823;28;20112;-48
2024/01/07 11:31:41;;;;;;;17.63;11.50;;;19.40;57.60;;;;;;5032885;28;20045;-50
2024/01/07 11:34:08;;;;;;;18.50;11.23;;;19.30;57.60;;;;;;5036470;28;20037;-51
2024/01/07 11:36:35;;;;;;;18.50;11.85;;;19.20;57.80;;;;;;5036238;28;20046;-49
2024/01/07 11:39:02;;;;;;;17.27;12.20;;;19.20;58.00;;;;;;5032642;28;20045;-49
2024/01/07 11:41:31;;;;;;;19.42;11.98;;;19.10;58.10;;;;;;5034939;28;20063;-49
2024/01/07 11:44:02;;;;;;;16.55;11.93;;;19.00;58.10;;;;;;5030108;28;20462;-50
2024/01/07 11:46:28;;;;;;;19.77;15.48;;;19.00;58.30;;;;;;5031016;28;20056;-51
2024/01/07 11:48:59;;;;;;;24.33;16.50;;;18.90;58.30;;;;;;5031099;28;20034;-51
2024/01/07 11:51:26;;;;;;;24.67;18.48;;;18.90;59.10;;;;;;5034812;28;20032;-51
2024/01/07 11:53:52;;;;;;;26.92;19.08;;;18.90;58.60;;;;;;5031904;28;20553;-52
2024/01/07 11:56:18;;;;;;;26.83;23.23;;;18.80;58.50;;;;;;5038923;28;20047;-51
2024/01/07 11:58:43;;;;;;;29.95;23.88;;;18.80;58.60;;;;;;5036580;28;20397;-53
2024/01/07 12:01:09;;;;;;;29.23;23.90;;;18.70;58.60;;;;;;5029474;28;20033;-50
2024/01/07 12:03:34;;;;;;;35.72;27.73;;;18.70;58.50;;;;;;5034931;28;20529;-50
2024/01/07 12:06:00;;;;;;;35.47;29.13;;;18.70;58.60;;;;;;5034316;28;20036;-50
2024/01/07 12:08:26;;;;;;;37.00;30.52;;;18.60;58.70;;;;;;5031767;28;20041;-51
2024/01/07 12:10:51;;;;;;;40.70;32.35;;;18.60;58.60;;;;;;5033886;28;20108;-51
2024/01/07 12:13:17;;;;;;;45.65;34.20;;;18.60;58.70;;;;;;5031557;28;20094;-50
2024/01/07 12:15:44;;;;;;;44.95;36.80;;;18.60;58.70;;;;;;5030047;28;20052;-51
2024/01/07 12:18:09;;;;;;;45.90;38.22;;;18.60;58.90;;;;;;5035497;28;20124;-50
2024/01/07 12:20:35;;;;;;;47.63;39.72;;;18.60;58.70;;;;;;5031895;28;20109;-50
2024/01/07 12:23:08;;;;;;;49.42;39.75;;;18.50;58.70;;;;;;5033564;28;20041;-51
2024/01/07 12:25:34;;;;;;;61.22;47.72;;;18.50;58.90;;;;;;5035107;28;20044;-51
2024/01/07 12:27:59;;;;;;;52.38;44.28;;;18.50;58.80;;;;;;5032528;28;20033;-51